sensor_id;sensor_type;location;lat;lon;timestamp;P1;durP1;ratioP1;P2;durP2;ratioP2
69989;SDS011;57331;52.054;5.294;2023-03-01T00:00:20;12.18;;;5.22;;
69989;SDS011;57331;52.054;5.294;2023-03-01T00:02:47;10.95;;;5.07;;
69989;SDS011;57331;52.054;5.294;2023-03-01T00:05:15;10.25;;;4.60;;
69989;SDS011;57331;52.054;5.294;2023-03-01T00:07:42;10.40;;;4.80;;
69989;SDS011;57331;52.054;5.294;2023-03-01T00:10:09;10.00;;;5.03;;
69989;SDS011;57331;52.054;5.294;2023-03-01T00:12:37;11.60;;;5.43;;
69989;SDS011;57331;52.054;5.294;2023-03-01T00:15:04;11.18;;;4.95;;
69989;SDS011;57331;52.054;5.294;2023-03-01T00:17:32;11.27;;;5.30;;
69989;SDS011;57331;52.054;5.294;2023-03-01T00:19:59;10.80;;;4.95;;
69989;SDS011;57331;52.054;5.294;2023-03-01T00:22:26;11.33;;;5.30;;
69989;SDS011;57331;52.054;5.294;2023-03-01T00:24:56;13.45;;;5.78;;
69989;SDS011;57331;52.054;5.294;2023-03-01T00:27:24;10.57;;;4.70;;
69989;SDS011;57331;52.054;5.294;2023-03-01T00:29:51;10.45;;;4.43;;
69989;SDS011;57331;52.054;5.294;2023-03-01T00:32:19;13.77;;;6.03;;
69989;SDS011;57331;52.054;5.294;2023-03-01T00:34:46;11.97;;;5.73;;
69989;SDS011;57331;52.054;5.294;2023-03-01T00:37:20;13.57;;;4.90;;
69989;SDS011;57331;52.054;5.294;2023-03-01T00:39:48;10.90;;;5.13;;
69989;SDS011;57331;52.054;5.294;2023-03-01T00:42:15;13.25;;;5.57;;
69989;SDS011;57331;52.054;5.294;2023-03-01T00:44:43;12.18;;;5.57;;
69989;SDS011;57331;52.054;5.294;2023-03-01T00:47:10;11.00;;;5.43;;
69989;SDS011;57331;52.054;5.294;2023-03-01T00:49:37;11.10;;;4.88;;
69989;SDS011;57331;52.054;5.294;2023-03-01T00:52:05;13.75;;;5.60;;
69989;SDS011;57331;52.054;5.294;2023-03-01T00:54:32;13.18;;;5.07;;
69989;SDS011;57331;52.054;5.294;2023-03-01T00:56:59;16.90;;;5.47;;
69989;SDS011;57331;52.054;5.294;2023-03-01T00:59:27;13.63;;;5.67;;
69989;SDS011;57331;52.054;5.294;2023-03-01T01:01:54;12.57;;;5.40;;
69989;SDS011;57331;52.054;5.294;2023-03-01T01:04:21;14.25;;;6.22;;
69989;SDS011;57331;52.054;5.294;2023-03-01T01:06:48;14.07;;;6.13;;
69989;SDS011;57331;52.054;5.294;2023-03-01T01:09:16;10.60;;;5.60;;
69989;SDS011;57331;52.054;5.294;2023-03-01T01:11:48;11.60;;;5.30;;
69989;SDS011;57331;52.054;5.294;2023-03-01T01:14:16;10.85;;;4.72;;
69989;SDS011;57331;52.054;5.294;2023-03-01T01:16:43;13.43;;;6.13;;
69989;SDS011;57331;52.054;5.294;2023-03-01T01:19:11;12.10;;;5.90;;
69989;SDS011;57331;52.054;5.294;2023-03-01T01:21:39;14.48;;;5.68;;
69989;SDS011;57331;52.054;5.294;2023-03-01T01:24:09;11.87;;;5.43;;
69989;SDS011;57331;52.054;5.294;2023-03-01T01:26:36;11.55;;;6.20;;
69989;SDS011;57331;52.054;5.294;2023-03-01T01:29:04;12.50;;;5.85;;
69989;SDS011;57331;52.054;5.294;2023-03-01T01:31:32;12.02;;;5.05;;
69989;SDS011;57331;52.054;5.294;2023-03-01T01:34:01;11.98;;;6.20;;
69989;SDS011;57331;52.054;5.294;2023-03-01T01:36:30;16.30;;;5.97;;
69989;SDS011;57331;52.054;5.294;2023-03-01T01:38:58;11.57;;;5.40;;
69989;SDS011;57331;52.054;5.294;2023-03-01T01:41:26;10.90;;;5.18;;
69989;SDS011;57331;52.054;5.294;2023-03-01T01:46:37;11.27;;;5.80;;
69989;SDS011;57331;52.054;5.294;2023-03-01T01:51:54;12.82;;;5.43;;
69989;SDS011;57331;52.054;5.294;2023-03-01T01:54:45;12.45;;;6.50;;
69989;SDS011;57331;52.054;5.294;2023-03-01T01:57:12;10.98;;;5.22;;
69989;SDS011;57331;52.054;5.294;2023-03-01T01:59:40;11.25;;;5.30;;
69989;SDS011;57331;52.054;5.294;2023-03-01T02:02:10;13.53;;;5.83;;
69989;SDS011;57331;52.054;5.294;2023-03-01T02:04:38;13.93;;;5.35;;
69989;SDS011;57331;52.054;5.294;2023-03-01T02:07:12;12.93;;;5.75;;
69989;SDS011;57331;52.054;5.294;2023-03-01T02:09:42;10.82;;;5.43;;
69989;SDS011;57331;52.054;5.294;2023-03-01T02:12:12;17.17;;;6.53;;
69989;SDS011;57331;52.054;5.294;2023-03-01T02:14:40;11.43;;;5.80;;
69989;SDS011;57331;52.054;5.294;2023-03-01T02:17:09;10.73;;;4.72;;
69989;SDS011;57331;52.054;5.294;2023-03-01T02:19:40;14.15;;;6.60;;
69989;SDS011;57331;52.054;5.294;2023-03-01T02:22:24;13.93;;;6.20;;
69989;SDS011;57331;52.054;5.294;2023-03-01T02:24:57;14.95;;;6.15;;
69989;SDS011;57331;52.054;5.294;2023-03-01T02:27:28;14.47;;;5.87;;
69989;SDS011;57331;52.054;5.294;2023-03-01T02:29:59;13.50;;;6.22;;
69989;SDS011;57331;52.054;5.294;2023-03-01T02:32:27;14.77;;;6.43;;
69989;SDS011;57331;52.054;5.294;2023-03-01T02:34:55;12.88;;;6.22;;
69989;SDS011;57331;52.054;5.294;2023-03-01T02:37:22;12.23;;;6.03;;
69989;SDS011;57331;52.054;5.294;2023-03-01T02:40:01;14.57;;;6.33;;
69989;SDS011;57331;52.054;5.294;2023-03-01T02:42:33;13.05;;;6.25;;
69989;SDS011;57331;52.054;5.294;2023-03-01T02:45:03;13.52;;;6.65;;
69989;SDS011;57331;52.054;5.294;2023-03-01T02:47:31;14.35;;;6.95;;
69989;SDS011;57331;52.054;5.294;2023-03-01T02:49:58;13.73;;;6.70;;
69989;SDS011;57331;52.054;5.294;2023-03-01T02:52:39;15.33;;;6.73;;
69989;SDS011;57331;52.054;5.294;2023-03-01T02:55:12;13.50;;;6.18;;
69989;SDS011;57331;52.054;5.294;2023-03-01T02:57:42;12.90;;;6.18;;
69989;SDS011;57331;52.054;5.294;2023-03-01T03:00:14;14.32;;;6.70;;
69989;SDS011;57331;52.054;5.294;2023-03-01T03:02:47;10.98;;;5.57;;
69989;SDS011;57331;52.054;5.294;2023-03-01T03:05:22;12.33;;;6.27;;
69989;SDS011;57331;52.054;5.294;2023-03-01T03:07:53;14.73;;;6.25;;
69989;SDS011;57331;52.054;5.294;2023-03-01T03:10:22;18.23;;;5.72;;
69989;SDS011;57331;52.054;5.294;2023-03-01T03:12:54;11.55;;;6.13;;
69989;SDS011;57331;52.054;5.294;2023-03-01T03:15:21;13.55;;;6.60;;
69989;SDS011;57331;52.054;5.294;2023-03-01T03:17:49;18.93;;;6.50;;
69989;SDS011;57331;52.054;5.294;2023-03-01T03:20:18;11.40;;;5.65;;
69989;SDS011;57331;52.054;5.294;2023-03-01T03:22:47;13.05;;;5.85;;
69989;SDS011;57331;52.054;5.294;2023-03-01T03:25:15;14.95;;;6.82;;
69989;SDS011;57331;52.054;5.294;2023-03-01T03:27:43;13.52;;;5.80;;
69989;SDS011;57331;52.054;5.294;2023-03-01T03:30:11;14.77;;;6.63;;
69989;SDS011;57331;52.054;5.294;2023-03-01T03:32:40;15.55;;;6.75;;
69989;SDS011;57331;52.054;5.294;2023-03-01T03:35:08;15.60;;;6.32;;
69989;SDS011;57331;52.054;5.294;2023-03-01T03:37:40;17.17;;;7.30;;
69989;SDS011;57331;52.054;5.294;2023-03-01T03:40:27;12.35;;;5.82;;
69989;SDS011;57331;52.054;5.294;2023-03-01T03:42:55;16.33;;;6.97;;
69989;SDS011;57331;52.054;5.294;2023-03-01T03:45:22;16.52;;;7.30;;
69989;SDS011;57331;52.054;5.294;2023-03-01T03:47:49;13.98;;;7.13;;
69989;SDS011;57331;52.054;5.294;2023-03-01T03:50:17;17.60;;;7.07;;
69989;SDS011;57331;52.054;5.294;2023-03-01T03:52:44;15.15;;;6.63;;
69989;SDS011;57331;52.054;5.294;2023-03-01T03:55:12;11.00;;;5.13;;
69989;SDS011;57331;52.054;5.294;2023-03-01T03:57:42;13.90;;;6.57;;
69989;SDS011;57331;52.054;5.294;2023-03-01T04:00:10;12.50;;;6.65;;
69989;SDS011;57331;52.054;5.294;2023-03-01T04:02:41;14.98;;;6.55;;
69989;SDS011;57331;52.054;5.294;2023-03-01T04:05:10;13.65;;;6.85;;
69989;SDS011;57331;52.054;5.294;2023-03-01T04:07:38;12.73;;;5.77;;
69989;SDS011;57331;52.054;5.294;2023-03-01T04:10:06;20.70;;;7.07;;
69989;SDS011;57331;52.054;5.294;2023-03-01T04:12:34;13.18;;;7.18;;
69989;SDS011;57331;52.054;5.294;2023-03-01T04:15:06;14.73;;;7.45;;
69989;SDS011;57331;52.054;5.294;2023-03-01T04:20:08;17.48;;;6.93;;
69989;SDS011;57331;52.054;5.294;2023-03-01T04:22:37;13.48;;;6.32;;
69989;SDS011;57331;52.054;5.294;2023-03-01T04:25:04;15.40;;;7.20;;
69989;SDS011;57331;52.054;5.294;2023-03-01T04:27:33;15.82;;;7.55;;
69989;SDS011;57331;52.054;5.294;2023-03-01T04:30:00;12.80;;;6.07;;
69989;SDS011;57331;52.054;5.294;2023-03-01T04:32:27;16.67;;;7.13;;
69989;SDS011;57331;52.054;5.294;2023-03-01T04:34:55;15.43;;;7.32;;
69989;SDS011;57331;52.054;5.294;2023-03-01T04:37:22;18.50;;;7.30;;
69989;SDS011;57331;52.054;5.294;2023-03-01T04:39:50;14.40;;;7.53;;
69989;SDS011;57331;52.054;5.294;2023-03-01T04:42:18;17.50;;;6.88;;
69989;SDS011;57331;52.054;5.294;2023-03-01T04:44:45;15.02;;;6.90;;
69989;SDS011;57331;52.054;5.294;2023-03-01T04:47:13;15.75;;;7.15;;
69989;SDS011;57331;52.054;5.294;2023-03-01T04:49:39;11.88;;;6.35;;
69989;SDS011;57331;52.054;5.294;2023-03-01T04:52:07;14.27;;;6.40;;
69989;SDS011;57331;52.054;5.294;2023-03-01T04:54:35;13.00;;;7.07;;
69989;SDS011;57331;52.054;5.294;2023-03-01T04:57:02;13.63;;;6.57;;
69989;SDS011;57331;52.054;5.294;2023-03-01T04:59:29;16.35;;;6.50;;
69989;SDS011;57331;52.054;5.294;2023-03-01T05:01:56;14.35;;;6.55;;
69989;SDS011;57331;52.054;5.294;2023-03-01T05:04:24;17.60;;;6.55;;
69989;SDS011;57331;52.054;5.294;2023-03-01T05:06:51;16.45;;;7.80;;
69989;SDS011;57331;52.054;5.294;2023-03-01T05:09:19;13.15;;;5.97;;
69989;SDS011;57331;52.054;5.294;2023-03-01T05:11:47;17.03;;;6.60;;
69989;SDS011;57331;52.054;5.294;2023-03-01T05:14:14;15.93;;;6.75;;
69989;SDS011;57331;52.054;5.294;2023-03-01T05:16:41;15.30;;;7.40;;
69989;SDS011;57331;52.054;5.294;2023-03-01T05:19:08;13.95;;;7.13;;
69989;SDS011;57331;52.054;5.294;2023-03-01T05:21:42;13.37;;;5.57;;
69989;SDS011;57331;52.054;5.294;2023-03-01T05:24:28;14.20;;;7.32;;
69989;SDS011;57331;52.054;5.294;2023-03-01T05:26:57;15.52;;;6.57;;
69989;SDS011;57331;52.054;5.294;2023-03-01T05:29:25;14.43;;;6.53;;
69989;SDS011;57331;52.054;5.294;2023-03-01T05:31:53;17.25;;;7.00;;
69989;SDS011;57331;52.054;5.294;2023-03-01T05:34:25;15.77;;;7.72;;
69989;SDS011;57331;52.054;5.294;2023-03-01T05:36:53;14.32;;;6.82;;
69989;SDS011;57331;52.054;5.294;2023-03-01T05:39:20;14.70;;;6.97;;
69989;SDS011;57331;52.054;5.294;2023-03-01T05:41:53;14.70;;;6.75;;
69989;SDS011;57331;52.054;5.294;2023-03-01T05:44:20;22.88;;;7.63;;
69989;SDS011;57331;52.054;5.294;2023-03-01T05:46:47;15.20;;;7.32;;
69989;SDS011;57331;52.054;5.294;2023-03-01T05:49:15;19.90;;;7.88;;
69989;SDS011;57331;52.054;5.294;2023-03-01T05:51:47;21.80;;;8.30;;
69989;SDS011;57331;52.054;5.294;2023-03-01T05:54:15;15.90;;;7.28;;
69989;SDS011;57331;52.054;5.294;2023-03-01T05:56:42;15.88;;;7.45;;
69989;SDS011;57331;52.054;5.294;2023-03-01T05:59:10;16.23;;;7.37;;
69989;SDS011;57331;52.054;5.294;2023-03-01T06:01:37;15.88;;;7.18;;
69989;SDS011;57331;52.054;5.294;2023-03-01T06:04:05;15.80;;;7.65;;
69989;SDS011;57331;52.054;5.294;2023-03-01T06:06:35;16.38;;;7.90;;
69989;SDS011;57331;52.054;5.294;2023-03-01T06:09:06;19.60;;;8.27;;
69989;SDS011;57331;52.054;5.294;2023-03-01T06:11:35;15.10;;;7.43;;
69989;SDS011;57331;52.054;5.294;2023-03-01T06:14:03;17.10;;;7.15;;
69989;SDS011;57331;52.054;5.294;2023-03-01T06:16:30;17.27;;;7.68;;
69989;SDS011;57331;52.054;5.294;2023-03-01T06:18:58;18.83;;;8.03;;
69989;SDS011;57331;52.054;5.294;2023-03-01T06:21:25;18.35;;;8.13;;
69989;SDS011;57331;52.054;5.294;2023-03-01T06:23:53;16.80;;;6.82;;
69989;SDS011;57331;52.054;5.294;2023-03-01T06:26:20;19.67;;;7.50;;
69989;SDS011;57331;52.054;5.294;2023-03-01T06:28:47;15.70;;;7.15;;
69989;SDS011;57331;52.054;5.294;2023-03-01T06:31:14;17.83;;;7.40;;
69989;SDS011;57331;52.054;5.294;2023-03-01T06:33:42;20.15;;;7.18;;
69989;SDS011;57331;52.054;5.294;2023-03-01T06:36:10;17.67;;;8.05;;
69989;SDS011;57331;52.054;5.294;2023-03-01T06:38:38;19.05;;;6.47;;
69989;SDS011;57331;52.054;5.294;2023-03-01T06:41:06;20.10;;;8.25;;
69989;SDS011;57331;52.054;5.294;2023-03-01T06:43:34;15.35;;;7.40;;
69989;SDS011;57331;52.054;5.294;2023-03-01T06:46:03;17.90;;;7.20;;
69989;SDS011;57331;52.054;5.294;2023-03-01T06:48:31;17.23;;;8.00;;
69989;SDS011;57331;52.054;5.294;2023-03-01T06:50:58;15.18;;;6.85;;
69989;SDS011;57331;52.054;5.294;2023-03-01T06:53:27;15.45;;;7.22;;
69989;SDS011;57331;52.054;5.294;2023-03-01T06:55:55;16.00;;;7.63;;
69989;SDS011;57331;52.054;5.294;2023-03-01T06:58:23;18.47;;;7.70;;
69989;SDS011;57331;52.054;5.294;2023-03-01T07:00:50;14.73;;;7.38;;
69989;SDS011;57331;52.054;5.294;2023-03-01T07:03:17;20.77;;;9.07;;
69989;SDS011;57331;52.054;5.294;2023-03-01T07:05:44;20.20;;;9.93;;
69989;SDS011;57331;52.054;5.294;2023-03-01T07:08:12;21.88;;;10.13;;
69989;SDS011;57331;52.054;5.294;2023-03-01T07:10:39;20.88;;;9.43;;
69989;SDS011;57331;52.054;5.294;2023-03-01T07:13:06;19.77;;;9.65;;
69989;SDS011;57331;52.054;5.294;2023-03-01T07:15:34;30.02;;;11.07;;
69989;SDS011;57331;52.054;5.294;2023-03-01T07:18:01;17.95;;;9.00;;
69989;SDS011;57331;52.054;5.294;2023-03-01T07:20:28;17.87;;;7.23;;
69989;SDS011;57331;52.054;5.294;2023-03-01T07:22:56;15.25;;;8.07;;
69989;SDS011;57331;52.054;5.294;2023-03-01T07:25:24;17.98;;;8.02;;
69989;SDS011;57331;52.054;5.294;2023-03-01T07:27:52;16.48;;;7.90;;
69989;SDS011;57331;52.054;5.294;2023-03-01T07:30:20;20.50;;;8.00;;
69989;SDS011;57331;52.054;5.294;2023-03-01T07:32:48;17.43;;;7.90;;
69989;SDS011;57331;52.054;5.294;2023-03-01T07:35:15;19.50;;;8.80;;
69989;SDS011;57331;52.054;5.294;2023-03-01T07:37:43;14.98;;;7.75;;
69989;SDS011;57331;52.054;5.294;2023-03-01T07:40:10;16.55;;;8.43;;
69989;SDS011;57331;52.054;5.294;2023-03-01T07:42:38;17.52;;;9.15;;
69989;SDS011;57331;52.054;5.294;2023-03-01T07:45:05;17.30;;;8.50;;
69989;SDS011;57331;52.054;5.294;2023-03-01T07:47:33;18.45;;;8.98;;
69989;SDS011;57331;52.054;5.294;2023-03-01T07:50:00;20.73;;;9.05;;
69989;SDS011;57331;52.054;5.294;2023-03-01T07:52:28;19.45;;;8.05;;
69989;SDS011;57331;52.054;5.294;2023-03-01T07:54:57;16.65;;;7.95;;
69989;SDS011;57331;52.054;5.294;2023-03-01T07:57:24;15.63;;;7.63;;
69989;SDS011;57331;52.054;5.294;2023-03-01T07:59:52;17.38;;;8.48;;
69989;SDS011;57331;52.054;5.294;2023-03-01T08:02:19;18.17;;;8.77;;
69989;SDS011;57331;52.054;5.294;2023-03-01T08:04:46;17.70;;;7.55;;
69989;SDS011;57331;52.054;5.294;2023-03-01T08:07:14;16.17;;;7.97;;
69989;SDS011;57331;52.054;5.294;2023-03-01T08:09:41;19.37;;;7.43;;
69989;SDS011;57331;52.054;5.294;2023-03-01T08:12:08;20.02;;;7.97;;
69989;SDS011;57331;52.054;5.294;2023-03-01T08:14:36;17.15;;;7.22;;
69989;SDS011;57331;52.054;5.294;2023-03-01T08:17:03;17.10;;;7.65;;
69989;SDS011;57331;52.054;5.294;2023-03-01T08:19:30;15.85;;;7.10;;
69989;SDS011;57331;52.054;5.294;2023-03-01T08:21:58;15.13;;;6.53;;
69989;SDS011;57331;52.054;5.294;2023-03-01T08:24:26;22.63;;;7.22;;
69989;SDS011;57331;52.054;5.294;2023-03-01T08:26:53;26.38;;;11.00;;
69989;SDS011;57331;52.054;5.294;2023-03-01T08:29:20;47.53;;;18.30;;
69989;SDS011;57331;52.054;5.294;2023-03-01T08:31:48;40.42;;;13.05;;
69989;SDS011;57331;52.054;5.294;2023-03-01T08:34:16;21.57;;;7.70;;
69989;SDS011;57331;52.054;5.294;2023-03-01T08:36:45;22.42;;;8.77;;
69989;SDS011;57331;52.054;5.294;2023-03-01T08:39:14;19.45;;;7.97;;
69989;SDS011;57331;52.054;5.294;2023-03-01T08:41:42;24.83;;;9.10;;
69989;SDS011;57331;52.054;5.294;2023-03-01T08:44:14;26.58;;;9.48;;
69989;SDS011;57331;52.054;5.294;2023-03-01T08:46:43;14.90;;;7.33;;
69989;SDS011;57331;52.054;5.294;2023-03-01T08:49:13;25.55;;;9.38;;
69989;SDS011;57331;52.054;5.294;2023-03-01T08:51:41;24.55;;;9.27;;
69989;SDS011;57331;52.054;5.294;2023-03-01T08:54:13;16.60;;;6.30;;
69989;SDS011;57331;52.054;5.294;2023-03-01T08:56:42;17.33;;;6.20;;
69989;SDS011;57331;52.054;5.294;2023-03-01T08:59:10;13.73;;;5.73;;
69989;SDS011;57331;52.054;5.294;2023-03-01T09:01:38;14.60;;;5.32;;
69989;SDS011;57331;52.054;5.294;2023-03-01T09:04:06;13.23;;;6.18;;
69989;SDS011;57331;52.054;5.294;2023-03-01T09:06:33;12.50;;;5.50;;
69989;SDS011;57331;52.054;5.294;2023-03-01T09:09:02;13.50;;;5.95;;
69989;SDS011;57331;52.054;5.294;2023-03-01T09:11:30;16.03;;;6.83;;
69989;SDS011;57331;52.054;5.294;2023-03-01T09:13:57;16.23;;;6.90;;
69989;SDS011;57331;52.054;5.294;2023-03-01T09:16:25;22.25;;;8.00;;
69989;SDS011;57331;52.054;5.294;2023-03-01T09:18:53;15.38;;;7.60;;
69989;SDS011;57331;52.054;5.294;2023-03-01T09:21:21;58.03;;;21.85;;
69989;SDS011;57331;52.054;5.294;2023-03-01T09:24:06;12.10;;;6.07;;
69989;SDS011;57331;52.054;5.294;2023-03-01T09:26:41;21.30;;;7.88;;
69989;SDS011;57331;52.054;5.294;2023-03-01T09:29:08;18.35;;;7.80;;
69989;SDS011;57331;52.054;5.294;2023-03-01T09:31:36;21.38;;;8.32;;
69989;SDS011;57331;52.054;5.294;2023-03-01T09:34:03;21.27;;;9.13;;
69989;SDS011;57331;52.054;5.294;2023-03-01T09:36:31;12.00;;;5.77;;
69989;SDS011;57331;52.054;5.294;2023-03-01T09:38:59;15.15;;;6.88;;
69989;SDS011;57331;52.054;5.294;2023-03-01T09:41:38;12.50;;;5.85;;
69989;SDS011;57331;52.054;5.294;2023-03-01T09:46:37;12.25;;;6.28;;
69989;SDS011;57331;52.054;5.294;2023-03-01T09:49:15;13.33;;;6.07;;
69989;SDS011;57331;52.054;5.294;2023-03-01T09:54:26;16.38;;;6.95;;
69989;SDS011;57331;52.054;5.294;2023-03-01T09:57:05;12.18;;;5.50;;
69989;SDS011;57331;52.054;5.294;2023-03-01T09:59:57;12.30;;;5.50;;
69989;SDS011;57331;52.054;5.294;2023-03-01T10:05:19;14.02;;;5.88;;
69989;SDS011;57331;52.054;5.294;2023-03-01T10:10:52;10.68;;;4.43;;
69989;SDS011;57331;52.054;5.294;2023-03-01T10:16:02;11.17;;;4.87;;
69989;SDS011;57331;52.054;5.294;2023-03-01T10:18:43;7.90;;;3.78;;
69989;SDS011;57331;52.054;5.294;2023-03-01T10:21:17;8.55;;;4.20;;
69989;SDS011;57331;52.054;5.294;2023-03-01T10:23:46;10.75;;;4.93;;
69989;SDS011;57331;52.054;5.294;2023-03-01T10:29:09;11.40;;;5.10;;
69989;SDS011;57331;52.054;5.294;2023-03-01T10:34:16;9.40;;;4.13;;
69989;SDS011;57331;52.054;5.294;2023-03-01T10:36:55;9.75;;;4.45;;
69989;SDS011;57331;52.054;5.294;2023-03-01T10:39:25;10.93;;;4.45;;
69989;SDS011;57331;52.054;5.294;2023-03-01T10:42:02;10.20;;;5.03;;
69989;SDS011;57331;52.054;5.294;2023-03-01T10:47:08;9.82;;;4.63;;
69989;SDS011;57331;52.054;5.294;2023-03-01T10:49:52;11.13;;;5.90;;
69989;SDS011;57331;52.054;5.294;2023-03-01T10:52:25;10.80;;;6.00;;
69989;SDS011;57331;52.054;5.294;2023-03-01T10:54:58;12.93;;;6.53;;
69989;SDS011;57331;52.054;5.294;2023-03-01T10:57:29;10.82;;;5.65;;
69989;SDS011;57331;52.054;5.294;2023-03-01T11:00:26;13.60;;;4.85;;
69989;SDS011;57331;52.054;5.294;2023-03-01T11:03:09;12.57;;;5.00;;
69989;SDS011;57331;52.054;5.294;2023-03-01T11:06:00;11.68;;;5.10;;
69989;SDS011;57331;52.054;5.294;2023-03-01T11:08:41;12.37;;;5.37;;
69989;SDS011;57331;52.054;5.294;2023-03-01T11:13:36;7.38;;;3.60;;
69989;SDS011;57331;52.054;5.294;2023-03-01T11:16:27;10.82;;;3.55;;
69989;SDS011;57331;52.054;5.294;2023-03-01T11:18:58;8.20;;;3.67;;
69989;SDS011;57331;52.054;5.294;2023-03-01T11:21:27;7.47;;;3.33;;
69989;SDS011;57331;52.054;5.294;2023-03-01T11:23:57;7.63;;;3.70;;
69989;SDS011;57331;52.054;5.294;2023-03-01T11:26:28;7.53;;;3.78;;
69989;SDS011;57331;52.054;5.294;2023-03-01T11:28:58;9.90;;;3.80;;
69989;SDS011;57331;52.054;5.294;2023-03-01T11:31:30;13.02;;;5.07;;
69989;SDS011;57331;52.054;5.294;2023-03-01T11:34:11;10.03;;;4.47;;
69989;SDS011;57331;52.054;5.294;2023-03-01T11:36:55;9.20;;;3.97;;
69989;SDS011;57331;52.054;5.294;2023-03-01T11:39:47;6.85;;;3.22;;
69989;SDS011;57331;52.054;5.294;2023-03-01T11:45:08;7.60;;;3.83;;
69989;SDS011;57331;52.054;5.294;2023-03-01T11:50:44;7.05;;;3.60;;
69989;SDS011;57331;52.054;5.294;2023-03-01T11:53:18;8.18;;;4.32;;
69989;SDS011;57331;52.054;5.294;2023-03-01T12:07:31;10.05;;;4.22;;
69989;SDS011;57331;52.054;5.294;2023-03-01T12:12:53;7.95;;;3.85;;
69989;SDS011;57331;52.054;5.294;2023-03-01T12:26:53;8.88;;;4.80;;
69989;SDS011;57331;52.054;5.294;2023-03-01T12:29:47;11.43;;;4.23;;
69989;SDS011;57331;52.054;5.294;2023-03-01T12:40:23;8.65;;;5.10;;
69989;SDS011;57331;52.054;5.294;2023-03-01T12:43:03;11.57;;;6.40;;
69989;SDS011;57331;52.054;5.294;2023-03-01T12:45:48;9.60;;;4.90;;
69989;SDS011;57331;52.054;5.294;2023-03-01T12:51:08;10.30;;;4.75;;
69989;SDS011;57331;52.054;5.294;2023-03-01T12:53:43;8.35;;;4.55;;
69989;SDS011;57331;52.054;5.294;2023-03-01T12:56:18;9.63;;;4.83;;
69989;SDS011;57331;52.054;5.294;2023-03-01T13:07:28;8.15;;;4.72;;
69989;SDS011;57331;52.054;5.294;2023-03-01T13:12:48;8.50;;;4.72;;
69989;SDS011;57331;52.054;5.294;2023-03-01T13:20:27;9.15;;;5.10;;
69989;SDS011;57331;52.054;5.294;2023-03-01T13:23:00;8.43;;;4.57;;
69989;SDS011;57331;52.054;5.294;2023-03-01T13:25:34;8.77;;;5.07;;
69989;SDS011;57331;52.054;5.294;2023-03-01T13:31:00;12.90;;;5.30;;
69989;SDS011;57331;52.054;5.294;2023-03-01T13:35:57;8.80;;;5.50;;
69989;SDS011;57331;52.054;5.294;2023-03-01T13:46:48;12.18;;;5.10;;
69989;SDS011;57331;52.054;5.294;2023-03-01T13:49:18;13.00;;;6.10;;
69989;SDS011;57331;52.054;5.294;2023-03-01T13:51:47;9.77;;;5.20;;
69989;SDS011;57331;52.054;5.294;2023-03-01T13:54:25;9.52;;;5.38;;
69989;SDS011;57331;52.054;5.294;2023-03-01T13:56:56;11.70;;;5.65;;
69989;SDS011;57331;52.054;5.294;2023-03-01T13:59:25;8.20;;;5.00;;
69989;SDS011;57331;52.054;5.294;2023-03-01T14:01:53;7.43;;;4.43;;
69989;SDS011;57331;52.054;5.294;2023-03-01T14:09:47;10.80;;;5.32;;
69989;SDS011;57331;52.054;5.294;2023-03-01T14:14:46;8.83;;;4.60;;
69989;SDS011;57331;52.054;5.294;2023-03-01T14:20:17;8.73;;;4.63;;
69989;SDS011;57331;52.054;5.294;2023-03-01T14:22:49;10.63;;;4.82;;
69989;SDS011;57331;52.054;5.294;2023-03-01T14:25:26;9.63;;;5.82;;
69989;SDS011;57331;52.054;5.294;2023-03-01T14:28:19;11.27;;;4.67;;
69989;SDS011;57331;52.054;5.294;2023-03-01T14:30:50;9.90;;;4.32;;
69989;SDS011;57331;52.054;5.294;2023-03-01T14:36:00;9.43;;;4.60;;
69989;SDS011;57331;52.054;5.294;2023-03-01T14:38:31;9.02;;;4.70;;
69989;SDS011;57331;52.054;5.294;2023-03-01T14:41:15;9.37;;;4.63;;
69989;SDS011;57331;52.054;5.294;2023-03-01T14:43:55;8.90;;;4.50;;
69989;SDS011;57331;52.054;5.294;2023-03-01T14:49:03;9.90;;;4.95;;
69989;SDS011;57331;52.054;5.294;2023-03-01T14:51:37;8.55;;;4.95;;
69989;SDS011;57331;52.054;5.294;2023-03-01T14:54:11;8.97;;;4.97;;
69989;SDS011;57331;52.054;5.294;2023-03-01T14:56:46;7.93;;;5.15;;
69989;SDS011;57331;52.054;5.294;2023-03-01T14:59:14;9.35;;;4.75;;
69989;SDS011;57331;52.054;5.294;2023-03-01T15:01:41;10.18;;;5.65;;
69989;SDS011;57331;52.054;5.294;2023-03-01T15:04:10;10.35;;;5.82;;
69989;SDS011;57331;52.054;5.294;2023-03-01T15:06:40;7.30;;;4.73;;
69989;SDS011;57331;52.054;5.294;2023-03-01T15:09:11;8.15;;;5.43;;
69989;SDS011;57331;52.054;5.294;2023-03-01T15:11:42;8.35;;;5.22;;
69989;SDS011;57331;52.054;5.294;2023-03-01T15:17:30;11.57;;;5.05;;
69989;SDS011;57331;52.054;5.294;2023-03-01T15:20:03;8.97;;;4.63;;
69989;SDS011;57331;52.054;5.294;2023-03-01T15:22:33;7.68;;;4.40;;
69989;SDS011;57331;52.054;5.294;2023-03-01T15:25:01;9.43;;;5.72;;
69989;SDS011;57331;52.054;5.294;2023-03-01T15:27:28;9.05;;;5.43;;
69989;SDS011;57331;52.054;5.294;2023-03-01T15:29:57;9.32;;;5.43;;
69989;SDS011;57331;52.054;5.294;2023-03-01T15:32:30;8.20;;;4.53;;
69989;SDS011;57331;52.054;5.294;2023-03-01T15:38:25;10.30;;;4.45;;
69989;SDS011;57331;52.054;5.294;2023-03-01T15:41:22;10.80;;;4.60;;
69989;SDS011;57331;52.054;5.294;2023-03-01T15:43:50;8.57;;;4.57;;
69989;SDS011;57331;52.054;5.294;2023-03-01T15:48:57;8.82;;;4.30;;
69989;SDS011;57331;52.054;5.294;2023-03-01T15:51:33;10.70;;;5.10;;
69989;SDS011;57331;52.054;5.294;2023-03-01T15:54:07;7.68;;;4.13;;
69989;SDS011;57331;52.054;5.294;2023-03-01T15:56:43;7.95;;;4.20;;
69989;SDS011;57331;52.054;5.294;2023-03-01T15:59:11;8.97;;;4.00;;
69989;SDS011;57331;52.054;5.294;2023-03-01T16:01:40;12.05;;;4.90;;
69989;SDS011;57331;52.054;5.294;2023-03-01T16:04:09;8.13;;;4.25;;
69989;SDS011;57331;52.054;5.294;2023-03-01T16:06:39;10.18;;;4.75;;
69989;SDS011;57331;52.054;5.294;2023-03-01T16:09:07;9.60;;;4.93;;
69989;SDS011;57331;52.054;5.294;2023-03-01T16:11:34;12.63;;;6.00;;
69989;SDS011;57331;52.054;5.294;2023-03-01T16:14:03;9.70;;;4.95;;
69989;SDS011;57331;52.054;5.294;2023-03-01T16:16:30;7.72;;;4.20;;
69989;SDS011;57331;52.054;5.294;2023-03-01T16:18:58;9.27;;;4.38;;
69989;SDS011;57331;52.054;5.294;2023-03-01T16:21:26;8.68;;;4.65;;
69989;SDS011;57331;52.054;5.294;2023-03-01T16:23:53;8.67;;;4.30;;
69989;SDS011;57331;52.054;5.294;2023-03-01T16:26:20;9.30;;;4.50;;
69989;SDS011;57331;52.054;5.294;2023-03-01T16:28:47;11.55;;;4.30;;
69989;SDS011;57331;52.054;5.294;2023-03-01T16:31:17;8.48;;;4.60;;
69989;SDS011;57331;52.054;5.294;2023-03-01T16:33:45;10.30;;;4.85;;
69989;SDS011;57331;52.054;5.294;2023-03-01T16:36:16;13.37;;;5.93;;
69989;SDS011;57331;52.054;5.294;2023-03-01T16:38:44;11.73;;;5.60;;
69989;SDS011;57331;52.054;5.294;2023-03-01T16:41:15;11.57;;;6.70;;
69989;SDS011;57331;52.054;5.294;2023-03-01T16:43:43;10.45;;;6.10;;
69989;SDS011;57331;52.054;5.294;2023-03-01T16:46:14;14.48;;;8.90;;
69989;SDS011;57331;52.054;5.294;2023-03-01T16:48:43;15.23;;;6.23;;
69989;SDS011;57331;52.054;5.294;2023-03-01T16:51:11;11.25;;;5.70;;
69989;SDS011;57331;52.054;5.294;2023-03-01T16:53:39;10.90;;;5.97;;
69989;SDS011;57331;52.054;5.294;2023-03-01T16:56:08;11.45;;;5.15;;
69989;SDS011;57331;52.054;5.294;2023-03-01T16:58:36;12.05;;;5.55;;
69989;SDS011;57331;52.054;5.294;2023-03-01T17:01:09;10.10;;;5.20;;
69989;SDS011;57331;52.054;5.294;2023-03-01T17:03:44;12.68;;;5.18;;